Latest Weather Observations for Toowoomba

IDQ60801

Issued at 2:35 pm EST Monday 20 October 2014 (issued every 30 minutes, with the page automatically refreshed every 10 minutes)

About weather observations | Map of weather stations | Latest weather observations for QLD | Other Formats
Station Details ID: 041529 Name: TOOWOOMBA AIRPORT Lat: -27.54 Lon: 151.91 Height: 640.9 m
Data from the previous 72 hours. | See also: Recent months at Toowoomba
Date/Time
EST
Temp
°C
App
Temp
°C
Dew
Point
Rel
Hum
%
Delta-T
°C
Wind Press
QNH
hPa
Press
MSL
hPa
Rain
since 9 am
mm
Dir
 
Spd
km/h
Gust
km/h
Spd
kts
Gust
kts
20/02:30pm 25.8 22.0 9.2 35 9.3 E 19 28 10 15 1023.5 - 0.0
20/02:00pm 26.1 22.3 9.0 34 9.6 ENE 19 24 10 13 1023.8 - 0.0
20/01:30pm 25.7 23.5 9.5 36 9.2 ESE 11 13 6 7 1024.2 - 0.0
20/01:00pm 26.5 25.2 9.8 35 9.5 ESE 7 15 4 8 1024.6 - 0.0
20/12:30pm 24.9 22.7 9.2 37 8.8 NE 11 20 6 11 1025.1 - 0.0
20/12:00pm 24.2 21.3 8.2 36 8.7 SW 13 20 7 11 1025.6 1023.4 0.0
20/11:30am 23.6 21.0 9.2 40 8.0 E 13 19 7 10 1026.1 - 0.0
20/11:00am 23.4 22.3 10.1 43 7.5 W 6 15 3 8 1026.6 - 0.0
20/10:30am 22.3 20.3 10.1 46 6.8 SE 11 17 6 9 1027.2 - 0.0
20/10:00am 20.8 19.1 9.7 49 6.1 E 9 13 5 7 1027.6 - 0.0
20/09:30am 20.2 19.0 10.3 53 5.5 ESE 7 13 4 7 1027.7 - 0.0
20/09:00am 18.3 16.6 9.9 58 4.6 ENE 9 13 5 7 1027.9 1025.7 0.0
20/08:30am 17.9 16.2 11.2 65 3.7 ENE 11 15 6 8 1027.9 - 0.0
20/08:00am 16.5 13.8 10.4 67 3.3 ENE 15 19 8 10 1027.6 - 0.0
20/07:30am 15.5 12.4 10.3 71 2.8 ENE 17 20 9 11 1027.6 - 0.0
20/07:00am 15.0 12.4 10.6 75 2.4 ENE 15 19 8 10 1027.4 - 0.0
20/06:30am 14.2 12.7 10.6 79 1.9 E 9 13 5 7 1027.2 - 0.0
20/06:00am 13.1 12.2 10.5 84 1.4 E 6 7 3 4 1026.7 1024.5 0.0
20/05:30am 11.9 9.8 9.8 87 1.1 ENE 11 15 6 8 1026.4 - 0.0
20/05:00am 11.9 8.7 9.8 87 1.1 E 17 19 9 10 1026.3 - 0.0
20/04:30am 11.9 8.1 9.8 87 1.1 E 20 24 11 13 1026.1 - 0.0
20/04:00am 12.0 8.2 9.7 86 1.2 E 20 24 11 13 1025.9 - 0.0
20/03:30am 12.2 8.0 9.8 85 1.3 E 22 28 12 15 1025.7 - 0.0
20/03:00am 12.2 7.2 9.6 84 1.4 E 26 32 14 17 1025.8 1023.6 0.0
20/02:30am 12.3 7.0 9.7 84 1.4 E 28 33 15 18 1025.9 - 0.0
20/02:00am 12.3 7.3 9.5 83 1.5 E 26 37 14 20 1026.0 - 0.0
20/01:30am 12.5 7.5 9.5 82 1.6 E 26 35 14 19 1026.3 - 0.0
20/01:00am 12.5 7.0 9.3 81 1.7 E 28 35 15 19 1026.5 - 0.0
20/12:30am 12.8 7.4 9.4 80 1.8 E 28 35 15 19 1027.0 - 0.0
20/12:00am 13.0 6.8 9.4 79 1.9 E 32 37 17 20 1027.2 1025.0 0.0
 
Date/Time
EST
Temp
°C
App
Temp
°C
Dew
Point
Rel
Hum
%
Delta-T
°C
Wind Press
QNH
hPa
Press
MSL
hPa
Rain
since 9 am
mm
Dir
 
Spd
km/h
Gust
km/h
Spd
kts
Gust
kts
19/11:30pm 13.2 7.4 9.5 78 2.0 E 30 37 16 20 1027.6 - 0.0
19/11:00pm 13.3 7.5 9.4 77 2.1 E 30 35 16 19 1027.8 - 0.0
19/10:30pm 13.5 7.7 9.4 76 2.2 E 30 37 16 20 1027.9 - 0.0
19/10:00pm 13.7 7.6 9.6 76 2.2 E 32 37 17 20 1027.9 - 0.0
19/09:30pm 14.2 7.5 9.8 75 2.3 E 35 43 19 23 1027.7 - 0.0
19/09:00pm 14.7 8.1 10.1 74 2.5 E 35 43 19 23 1027.4 1025.2 0.0
19/08:30pm 15.3 9.2 10.3 72 2.7 E 33 46 18 25 1027.3 - 0.0
19/08:00pm 16.1 10.0 10.4 69 3.1 E 33 41 18 22 1027.0 - 0.0
19/07:30pm 17.1 11.2 10.5 65 3.6 E 32 41 17 22 1026.7 - 0.0
19/07:00pm 18.4 13.8 9.7 57 4.7 E 24 30 13 16 1026.5 - 0.0
19/06:30pm 19.8 15.2 5.8 40 7.2 E 19 24 10 13 1026.1 - 0.0
19/06:00pm 20.6 16.1 6.2 39 7.4 E 19 26 10 14 1025.8 1023.6 0.0
19/05:30pm 21.4 16.4 6.5 38 7.8 E 22 26 12 14 1025.4 - 0.0
19/05:00pm 22.2 17.8 7.2 38 8.0 E 20 26 11 14 1025.1 - 0.0
19/04:30pm 22.4 17.9 7.0 37 8.2 E 20 28 11 15 1024.9 - 0.0
19/04:00pm 23.2 19.0 8.1 38 8.2 E 20 35 11 19 1024.8 - 0.0
19/03:30pm 23.3 19.3 8.2 38 8.2 ENE 19 32 10 17 1024.9 - 0.0
19/03:00pm 22.8 19.1 8.1 39 8.0 NE 17 30 9 16 1025.0 1022.8 0.0
19/02:30pm 23.1 18.6 8.4 39 8.0 ENE 22 30 12 16 1025.4 - 0.0
19/02:00pm 22.9 20.1 8.6 40 7.8 ESE 13 20 7 11 1025.9 - 0.0
19/01:30pm 22.6 20.0 9.4 43 7.3 ESE 13 24 7 13 1026.3 - 0.0
19/01:00pm 21.7 18.1 8.2 42 7.3 E 17 24 9 13 1027.0 - 0.0
19/12:30pm 21.1 17.8 8.0 43 7.0 SE 15 28 8 15 1027.5 - 0.0
19/12:00pm 21.0 17.2 8.9 46 6.6 E 19 28 10 15 1027.8 1025.6 0.0
19/11:30am 20.3 15.5 8.9 48 6.2 E 24 32 13 17 1028.2 - 0.0
19/11:00am 19.9 15.2 9.2 50 5.8 E 24 28 13 15 1028.7 - 0.0
19/10:30am 19.6 15.3 9.2 51 5.7 E 22 30 12 16 1029.0 - 0.0
19/10:00am 19.4 14.1 9.9 54 5.2 E 28 35 15 19 1029.2 - 0.0
19/09:30am 18.7 12.8 10.3 58 4.6 E 32 41 17 22 1029.3 - 0.0
19/09:00am 17.1 11.0 9.8 62 3.9 E 32 41 17 22 1029.4 1027.2 0.0
19/08:30am 16.5 10.0 10.4 67 3.3 E 35 46 19 25 1029.5 - 0.0
19/08:00am 15.7 9.1 10.0 69 3.1 E 35 44 19 24 1029.3 - 0.0
19/07:30am 15.3 9.4 10.3 72 2.7 E 32 39 17 21 1028.9 - 0.0
19/07:00am 14.4 8.8 10.0 75 2.4 E 30 41 16 22 1028.7 - 0.0
19/06:30am 13.6 8.4 10.2 80 1.8 E 28 39 15 21 1028.4 - 0.0
19/06:00am 12.5 7.7 10.2 86 1.2 E 26 33 14 18 1028.0 1025.8 0.0
19/05:30am 11.7 6.4 9.8 88 1.0 E 28 35 15 19 1027.8 - 0.0
19/05:00am 11.5 5.8 9.8 89 0.9 E 30 33 16 18 1027.5 - 0.0
19/04:30am 11.7 6.0 9.9 89 0.9 E 30 35 16 19 1027.2 - 0.0
19/04:00am 11.7 5.6 9.8 88 1.0 E 32 37 17 20 1026.8 - 0.0
19/03:30am 12.3 6.2 9.9 85 1.3 E 32 39 17 21 1026.6 - 0.0
19/03:24am 12.4 6.4 10.0 85 1.3 E 32 37 17 20 1026.6 - 0.0
19/03:08am 12.7 7.1 10.2 85 1.3 E 30 35 16 19 1026.6 - 0.0
19/03:00am 12.6 7.0 10.1 85 1.3 E 30 37 16 20 1026.7 1024.5 0.0
19/02:30am 12.5 6.5 10.2 86 1.2 E 32 37 17 20 1026.7 - 0.0
19/02:00am 12.2 6.3 10.3 88 1.0 E 32 39 17 21 1026.8 - 0.0
19/01:30am 12.1 6.0 10.3 89 1.0 E 33 39 18 21 1027.1 - 0.0
19/01:00am 12.3 6.2 10.5 89 1.0 E 33 43 18 23 1027.4 - 0.0
19/12:30am 12.5 6.7 10.9 90 0.9 E 32 41 17 22 1027.6 - 0.0
19/12:00am 12.8 7.1 11.0 89 1.0 E 32 41 17 22 1027.8 1025.6 0.0
 
Date/Time
EST
Temp
°C
App
Temp
°C
Dew
Point
Rel
Hum
%
Delta-T
°C
Wind Press
QNH
hPa
Press
MSL
hPa
Rain
since 9 am
mm
Dir
 
Spd
km/h
Gust
km/h
Spd
kts
Gust
kts
18/11:30pm 13.0 7.0 10.7 86 1.2 E 33 41 18 22 1028.1 - 0.0
18/11:00pm 13.2 7.3 10.6 84 1.4 E 32 41 17 22 1028.3 - 0.0
18/10:30pm 13.3 7.4 10.5 83 1.5 E 32 41 17 22 1028.4 - 0.0
18/10:00pm 13.7 8.6 10.7 82 1.6 E 28 37 15 20 1028.5 - 0.0
18/09:30pm 14.0 8.5 10.6 80 1.8 E 30 37 16 20 1028.4 - 0.0
18/09:00pm 14.3 9.2 10.7 79 1.9 E 28 37 15 20 1028.4 1026.3 0.0
18/08:30pm 14.7 9.2 10.7 77 2.2 E 30 39 16 21 1028.2 - 0.0
18/08:00pm 15.3 9.5 10.7 74 2.5 E 32 43 17 23 1027.8 - 0.0
18/07:30pm 16.1 10.9 10.4 69 3.1 E 28 37 15 20 1027.7 - 0.0
18/07:00pm 17.1 12.0 10.7 66 3.5 E 28 37 15 20 1027.3 - 0.0
18/06:30pm 17.8 13.0 10.4 62 4.1 ENE 26 33 14 18 1026.7 - 0.0
18/06:00pm 19.1 13.7 7.8 48 5.9 E 26 32 14 17 1026.3 1024.1 0.0
18/05:30pm 19.9 14.4 5.9 40 7.2 E 24 32 13 17 1025.7 - 0.0
18/05:00pm 20.6 15.1 4.2 34 8.2 E 22 30 12 16 1025.3 - 0.0
18/04:30pm 21.5 15.1 5.0 34 8.4 E 28 35 15 19 1024.8 - 0.0
18/04:00pm 22.0 16.5 5.8 35 8.4 ESE 24 35 13 19 1024.7 - 0.0
18/03:30pm 21.4 16.2 5.3 35 8.2 ESE 22 28 12 15 1024.8 - 0.0
18/03:00pm 22.0 16.9 5.8 35 8.4 E 22 37 12 20 1024.8 1022.6 0.0
18/02:30pm 21.7 17.1 5.6 35 8.3 E 19 28 10 15 1025.3 - 0.0
18/02:00pm 21.8 16.7 6.1 36 8.2 E 22 37 12 20 1025.5 - 0.0
18/01:30pm 22.1 17.7 6.7 37 8.1 ENE 19 26 10 14 1025.7 - 0.0
18/01:00pm 21.5 16.9 6.6 38 7.8 E 20 26 11 14 1026.0 - 0.0
18/12:30pm 21.8 17.5 6.9 38 7.9 ENE 19 28 10 15 1026.3 - 0.0
18/12:00pm 20.9 15.8 7.5 42 7.1 E 24 32 13 17 1026.7 1024.5 0.0
18/11:30am 21.1 17.1 9.0 46 6.6 ENE 20 24 11 13 1027.1 - 0.0
18/11:00am 20.2 15.4 8.8 48 6.2 ESE 24 32 13 17 1027.3 - 0.0
18/10:30am 19.4 14.6 8.7 50 5.8 E 24 35 13 19 1027.6 - 0.0
18/10:00am 18.8 14.3 8.7 52 5.4 E 22 33 12 18 1027.8 - 0.0
18/09:30am 18.2 11.8 8.7 54 5.1 E 32 43 17 23 1027.9 - 0.0
18/09:00am 17.0 9.9 9.4 61 4.1 E 37 48 20 26 1027.7 1025.5 0.0
18/08:30am 16.0 9.1 9.0 63 3.7 E 35 46 19 25 1027.6 - 0.0
18/08:00am 15.1 8.9 9.2 68 3.1 E 32 43 17 23 1027.7 - 0.0
18/07:30am 14.5 8.3 9.5 72 2.7 E 32 43 17 23 1027.5 - 0.0
18/07:00am 14.1 8.5 10.1 77 2.1 E 30 37 16 20 1027.0 - 0.0
18/06:30am 13.5 8.6 9.9 79 1.9 E 26 33 14 18 1026.6 - 0.0
18/06:00am 12.4 7.8 9.8 84 1.4 E 24 30 13 16 1026.2 1024.0 0.0
18/05:30am 11.8 7.2 9.7 87 1.1 E 24 30 13 16 1025.9 - 0.0
18/05:00am 11.6 7.4 9.7 88 1.0 E 22 28 12 15 1025.7 - 0.0
18/04:30am 11.8 8.2 9.7 87 1.1 E 19 24 10 13 1025.4 - 0.0
18/04:00am 11.9 7.8 10.0 88 1.0 E 22 30 12 16 1024.8 - 0.0
18/03:30am 12.0 7.5 10.1 88 1.0 E 24 30 13 16 1024.7 - 0.0
18/03:00am 12.4 7.6 10.3 87 1.1 E 26 33 14 18 1024.5 1022.3 0.0
18/02:30am 12.6 7.7 10.1 85 1.3 E 26 39 14 21 1024.4 - 0.0
18/02:00am 12.9 7.2 9.9 82 1.6 E 30 37 16 20 1024.2 - 0.0
18/01:30am 13.4 7.7 9.8 79 1.9 E 30 35 16 19 1024.1 - 0.0
18/01:00am 13.6 8.3 9.8 78 2.0 E 28 33 15 18 1024.3 - 0.0
18/12:30am 14.0 9.2 10.2 78 2.0 E 26 33 14 18 1024.4 - 0.0
18/12:00am 14.2 10.0 11.0 81 1.7 E 24 30 13 16 1024.6 1022.4 0.0
 
Date/Time
EST
Temp
°C
App
Temp
°C
Dew
Point
Rel
Hum
%
Delta-T
°C
Wind Press
QNH
hPa
Press
MSL
hPa
Rain
since 9 am
mm
Dir
 
Spd
km/h
Gust
km/h
Spd
kts
Gust
kts
17/11:30pm 14.7 9.4 11.1 79 2.0 E 30 39 16 21 1024.7 - 0.0
17/11:00pm 14.9 9.6 12.4 85 1.4 E 32 39 17 21 1024.6 - 0.0
17/10:42pm 15.0 10.8 13.4 90 0.9 E 28 41 15 22 1024.6 - 0.0
17/10:30pm 15.2 10.2 13.4 89 1.0 E 32 39 17 21 1024.6 - 0.0
17/10:00pm 15.4 11.2 13.4 88 1.2 E 28 39 15 21 1024.4 - 0.0
17/09:56pm 15.5 11.2 13.3 87 1.3 E 28 39 15 21 1024.4 - 0.0
17/09:30pm 15.5 10.8 13.2 86 1.3 E 30 43 16 23 1024.2 - 0.0
17/09:00pm 15.8 10.6 12.7 82 1.8 E 32 39 17 21 1024.1 1021.8 0.0
17/08:30pm 16.3 10.9 12.1 76 2.4 E 32 41 17 22 1024.0 - 0.0
17/08:00pm 16.8 10.7 11.9 73 2.8 E 35 44 19 24 1023.8 - 0.0
17/07:30pm 17.3 11.5 10.9 66 3.6 E 32 44 17 24 1023.3 - 0.0
17/07:00pm 18.5 12.8 9.8 57 4.8 ESE 30 46 16 25 1022.6 - 0.0
17/06:57pm 18.5 13.0 9.3 55 5.0 ESE 28 46 15 25 1022.5 - 0.0
17/06:30pm 20.6 16.0 -3.8 19 10.4 S 11 13 6 7 1021.8 - 0.0
17/06:00pm 21.6 16.7 -3.7 18 10.9 SSW 13 22 7 12 1021.3 1019.0 0.0
17/05:30pm 23.0 17.3 -4.1 16 11.7 WSW 17 22 9 12 1020.8 - 0.0
17/05:00pm 23.9 19.8 -3.4 16 12.1 WSW 9 15 5 8 1020.5 - 0.0
17/04:30pm 23.8 17.6 -5.3 14 12.4 SSW 19 24 10 13 1020.2 - 0.0
17/04:00pm 24.4 18.2 -4.8 14 12.6 SW 19 28 10 15 1019.9 - 0.0
17/03:30pm 24.4 18.7 -3.9 15 12.5 WSW 17 20 9 11 1019.9 - 0.0
17/03:00pm 24.5 19.0 -2.1 17 12.1 W 17 28 9 15 1019.9 1017.6 0.0

Other Formats:

Comma delimited format used in spreadsheet applications
http://www.bom.gov.au/fwo/IDQ60801/IDQ60801.95551.axf

JavaScript Object Notation format (JSON) in row-major order
http://www.bom.gov.au/fwo/IDQ60801/IDQ60801.95551.json